createdAt,value
2023-03-28T00:00:05.547Z,80.36
2023-03-28T00:00:18.243Z,80.36
2023-03-28T00:00:29.893Z,80.47
2023-03-28T00:00:42.131Z,80.47
2023-03-28T00:00:55.382Z,80.47
2023-03-28T00:01:06.125Z,80.47
2023-03-28T00:01:16.827Z,80.47
2023-03-28T00:01:27.562Z,80.47
2023-03-28T00:01:38.312Z,80.47
2023-03-28T00:01:49.046Z,80.57
2023-03-28T00:02:02.077Z,80.57
2023-03-28T00:02:12.893Z,80.57
2023-03-28T00:02:24.674Z,80.47
2023-03-28T00:02:35.452Z,80.47
2023-03-28T00:02:47.910Z,80.36
2023-03-28T00:03:00.360Z,80.26
2023-03-28T00:03:12.761Z,80.05
2023-03-28T00:03:24.542Z,79.94
2023-03-28T00:03:36.946Z,79.94
2023-03-28T00:03:48.698Z,80.05
2023-03-28T00:03:59.494Z,80.05
2023-03-28T00:04:10.233Z,80.16
2023-03-28T00:04:21.979Z,80.26
2023-03-28T00:04:32.720Z,80.36
2023-03-28T00:04:44.385Z,80.26
2023-03-28T00:04:56.134Z,80.16
2023-03-28T00:05:08.145Z,79.94
2023-03-28T00:05:20.056Z,79.84
2023-03-28T00:05:32.452Z,79.74
2023-03-28T00:05:45.114Z,79.74
2023-03-28T00:05:55.938Z,79.74
2023-03-28T00:06:08.569Z,79.74
2023-03-28T00:06:20.274Z,79.84
2023-03-28T00:06:32.807Z,79.84
2023-03-28T00:06:44.522Z,79.94
2023-03-28T00:06:55.330Z,79.84
2023-03-28T00:07:07.125Z,79.84
2023-03-28T00:07:19.445Z,79.74
2023-03-28T00:07:30.265Z,79.84
2023-03-28T00:07:41.971Z,79.84
2023-03-28T00:07:52.715Z,79.84
2023-03-28T00:08:03.455Z,79.94
2023-03-28T00:08:14.198Z,79.94
2023-03-28T00:08:24.943Z,79.94
2023-03-28T00:08:36.645Z,79.94
2023-03-28T00:08:47.561Z,79.94
2023-03-28T00:08:59.611Z,80.05
2023-03-28T00:09:11.282Z,80.05
2023-03-28T00:09:23.509Z,80.16
2023-03-28T00:09:35.713Z,80.16
2023-03-28T00:09:48.115Z,80.16
2023-03-28T00:10:00.567Z,80.26
2023-03-28T00:10:12.290Z,80.26
2023-03-28T00:10:23.035Z,80.16
2023-03-28T00:10:33.732Z,80.16
2023-03-28T00:10:44.448Z,80.16
2023-03-28T00:10:56.887Z,80.16
2023-03-28T00:11:08.596Z,80.16
2023-03-28T00:11:22.600Z,80.16
2023-03-28T00:11:35.540Z,80.26
2023-03-28T00:11:47.257Z,80.26
2023-03-28T00:11:57.937Z,80.16
2023-03-28T00:12:09.701Z,80.16
2023-03-28T00:12:21.364Z,80.16
2023-03-28T00:12:32.066Z,80.26
2023-03-28T00:12:43.789Z,80.36
2023-03-28T00:12:56.130Z,80.36
2023-03-28T00:13:08.541Z,80.47
2023-03-28T00:13:19.266Z,80.57
2023-03-28T00:13:32.481Z,80.68
2023-03-28T00:13:43.214Z,80.78
2023-03-28T00:13:54.000Z,80.78
2023-03-28T00:14:04.784Z,80.78
2023-03-28T00:14:15.494Z,80.68
2023-03-28T00:14:26.200Z,80.68
2023-03-28T00:14:38.385Z,80.47
2023-03-28T00:14:49.125Z,80.36
2023-03-28T00:15:01.592Z,80.36
2023-03-28T00:15:13.304Z,80.36
2023-03-28T00:15:25.482Z,80.47
2023-03-28T00:15:36.314Z,80.47
2023-03-28T00:15:48.872Z,80.36
2023-03-28T00:15:59.705Z,80.36
2023-03-28T00:16:13.298Z,80.36
2023-03-28T00:16:24.091Z,80.47
2023-03-28T00:16:35.782Z,80.47
2023-03-28T00:16:48.183Z,80.47
2023-03-28T00:17:01.355Z,80.47
2023-03-28T00:17:12.112Z,80.47
2023-03-28T00:17:23.163Z,80.57
2023-03-28T00:17:34.857Z,80.57
2023-03-28T00:17:45.569Z,80.57
2023-03-28T00:17:57.382Z,80.57
2023-03-28T00:18:09.147Z,80.47
2023-03-28T00:18:19.865Z,80.36
2023-03-28T00:18:30.583Z,80.36
2023-03-28T00:18:42.303Z,80.36
2023-03-28T00:18:53.031Z,80.36
2023-03-28T00:19:03.792Z,80.26
2023-03-28T00:19:15.564Z,80.26
2023-03-28T00:19:27.993Z,80.26
2023-03-28T00:19:39.660Z,80.26
2023-03-28T00:19:52.079Z,80.26
2023-03-28T00:20:03.760Z,80.36
2023-03-28T00:20:14.492Z,80.26
2023-03-28T00:20:25.185Z,80.26
2023-03-28T00:20:36.998Z,80.26
2023-03-28T00:20:47.727Z,80.36
2023-03-28T00:20:59.409Z,80.36
2023-03-28T00:21:11.891Z,80.47
2023-03-28T00:21:24.328Z,80.47
2023-03-28T00:21:35.043Z,80.47
2023-03-28T00:21:46.767Z,80.47
2023-03-28T00:21:57.520Z,80.47
2023-03-28T00:22:09.945Z,80.57
2023-03-28T00:22:20.682Z,80.57
2023-03-28T00:22:31.390Z,80.57
2023-03-28T00:22:43.796Z,80.57
2023-03-28T00:22:57.120Z,80.68
2023-03-28T00:23:09.330Z,80.71
2023-03-28T00:23:20.023Z,80.71
2023-03-28T00:23:31.734Z,80.71
2023-03-28T00:23:42.437Z,80.71
2023-03-28T00:23:55.113Z,80.71
2023-03-28T00:24:05.816Z,80.71
2023-03-28T00:24:16.557Z,80.71
2023-03-28T00:24:27.295Z,80.71
2023-03-28T00:24:38.041Z,80.71
2023-03-28T00:24:48.765Z,80.71
2023-03-28T00:25:01.267Z,80.71
2023-03-28T00:25:11.931Z,80.82
2023-03-28T00:25:24.309Z,80.92
2023-03-28T00:25:36.526Z,81.13
2023-03-28T00:25:47.233Z,81.23
2023-03-28T00:25:59.528Z,81.23
2023-03-28T00:26:11.325Z,81.13
2023-03-28T00:26:23.795Z,81.13
2023-03-28T00:26:36.512Z,81.02
2023-03-28T00:26:47.239Z,81.02
2023-03-28T00:26:57.977Z,81.13
2023-03-28T00:27:09.681Z,81.23
2023-03-28T00:27:21.393Z,81.34
2023-03-28T00:27:33.583Z,81.34
2023-03-28T00:27:45.302Z,81.34
2023-03-28T00:27:57.555Z,81.45
2023-03-28T00:28:09.832Z,81.45
2023-03-28T00:28:20.512Z,81.55
2023-03-28T00:28:32.309Z,81.55
2023-03-28T00:28:44.080Z,81.65
2023-03-28T00:28:56.532Z,81.65
2023-03-28T00:29:07.235Z,81.69
2023-03-28T00:29:19.910Z,81.69
2023-03-28T00:29:32.341Z,81.69
2023-03-28T00:29:43.080Z,81.69
2023-03-28T00:29:53.795Z,81.69
2023-03-28T00:30:06.481Z,81.79
2023-03-28T00:30:21.205Z,81.79
2023-03-28T00:30:33.660Z,81.90
2023-03-28T00:30:46.839Z,81.90
2023-03-28T00:30:58.536Z,81.90
2023-03-28T00:31:11.032Z,81.90
2023-03-28T00:31:23.479Z,82.00
2023-03-28T00:31:34.264Z,81.90
2023-03-28T00:31:46.643Z,81.90
2023-03-28T00:31:57.320Z,81.90
2023-03-28T00:32:09.756Z,81.90
2023-03-28T00:32:21.408Z,81.79
2023-03-28T00:32:33.851Z,81.79
2023-03-28T00:32:47.051Z,81.90
2023-03-28T00:32:59.588Z,82.00
2023-03-28T00:33:10.284Z,82.00
2023-03-28T00:33:21.968Z,82.10
2023-03-28T00:33:34.190Z,82.10
2023-03-28T00:33:44.967Z,82.10
2023-03-28T00:33:56.665Z,82.10
2023-03-28T00:34:07.364Z,82.10
2023-03-28T00:34:19.555Z,82.10
2023-03-28T00:34:31.474Z,82.10
2023-03-28T00:34:44.371Z,82.10
2023-03-28T00:34:56.533Z,82.10
2023-03-28T00:35:07.289Z,82.21
2023-03-28T00:35:19.705Z,82.31
2023-03-28T00:35:30.462Z,82.31
2023-03-28T00:35:41.190Z,82.31
2023-03-28T00:35:52.651Z,82.31
2023-03-28T00:36:04.437Z,82.21
2023-03-28T00:36:16.111Z,82.21
2023-03-28T00:36:26.985Z,82.10
2023-03-28T00:36:39.203Z,82.10
2023-03-28T00:36:50.004Z,82.00
2023-03-28T00:37:02.454Z,82.00
2023-03-28T00:37:15.598Z,82.00
2023-03-28T00:37:27.288Z,82.00
2023-03-28T00:37:39.253Z,82.10
2023-03-28T00:37:51.929Z,82.10
2023-03-28T00:38:04.421Z,82.00
2023-03-28T00:38:16.902Z,82.10
2023-03-28T00:38:27.673Z,82.10
2023-03-28T00:38:38.434Z,82.10
2023-03-28T00:38:50.870Z,82.21
2023-03-28T00:39:03.581Z,82.21
2023-03-28T00:39:14.359Z,82.31
2023-03-28T00:39:25.103Z,82.31
2023-03-28T00:39:35.830Z,82.31
2023-03-28T00:39:46.555Z,82.31
2023-03-28T00:39:57.366Z,82.31
2023-03-28T00:40:09.834Z,82.31
2023-03-28T00:40:22.272Z,82.42
2023-03-28T00:40:32.986Z,82.42
2023-03-28T00:40:45.774Z,82.53
2023-03-28T00:40:56.537Z,82.56
2023-03-28T00:41:08.957Z,82.67
2023-03-28T00:41:21.361Z,82.77
2023-03-28T00:41:32.087Z,82.77
2023-03-28T00:41:42.853Z,82.77
2023-03-28T00:41:53.599Z,82.77
2023-03-28T00:42:05.282Z,82.77
2023-03-28T00:42:15.977Z,82.87
2023-03-28T00:42:27.729Z,82.87
2023-03-28T00:42:38.438Z,82.87
2023-03-28T00:42:49.162Z,82.77
2023-03-28T00:42:59.854Z,82.77
2023-03-28T00:43:11.543Z,82.67
2023-03-28T00:43:22.237Z,82.67
2023-03-28T00:43:32.949Z,82.77
2023-03-28T00:43:45.126Z,82.77
2023-03-28T00:43:56.819Z,82.77
2023-03-28T00:44:09.731Z,82.77
2023-03-28T00:44:20.472Z,82.87
2023-03-28T00:44:31.255Z,82.87
2023-03-28T00:44:42.962Z,82.98
2023-03-28T00:44:53.806Z,82.98
2023-03-28T00:45:05.468Z,82.87
2023-03-28T00:45:17.210Z,82.87
2023-03-28T00:45:27.958Z,82.87
2023-03-28T00:45:38.746Z,82.87
2023-03-28T00:46:02.752Z,82.87
2023-03-28T00:46:09.373Z,82.87
2023-03-28T00:46:21.296Z,82.98
2023-03-28T00:46:33.012Z,82.98
2023-03-28T00:46:43.778Z,82.98
2023-03-28T00:46:54.567Z,82.98
2023-03-28T00:47:05.268Z,82.87
2023-03-28T00:47:17.652Z,82.84
2023-03-28T00:47:30.363Z,82.84
2023-03-28T00:47:41.211Z,82.84
2023-03-28T00:47:52.025Z,82.84
2023-03-28T00:48:04.467Z,82.73
2023-03-28T00:48:16.683Z,82.73
2023-03-28T00:48:29.618Z,82.73
2023-03-28T00:48:41.335Z,82.63
2023-03-28T00:48:53.057Z,82.53
2023-03-28T00:49:03.825Z,82.42
2023-03-28T00:49:14.564Z,82.31
2023-03-28T00:49:27.468Z,82.21
2023-03-28T00:49:40.727Z,82.21
2023-03-28T00:49:52.391Z,82.21
2023-03-28T00:50:04.078Z,82.21
2023-03-28T00:50:17.795Z,82.10
2023-03-28T00:50:29.529Z,82.00
2023-03-28T00:50:40.281Z,82.00
2023-03-28T00:50:51.086Z,82.00
2023-03-28T00:51:01.800Z,82.00
2023-03-28T00:51:12.565Z,82.10
2023-03-28T00:51:23.308Z,82.10
2023-03-28T00:51:35.749Z,82.10
2023-03-28T00:51:48.660Z,82.10
2023-03-28T00:52:01.077Z,82.10
2023-03-28T00:52:12.775Z,82.10
2023-03-28T00:52:23.521Z,82.10
2023-03-28T00:52:34.220Z,82.10
2023-03-28T00:52:44.920Z,82.10
2023-03-28T00:52:56.637Z,82.00
2023-03-28T00:53:09.116Z,82.00
2023-03-28T00:53:22.992Z,82.10
2023-03-28T00:53:35.156Z,82.21
2023-03-28T00:53:47.353Z,82.10
2023-03-28T00:53:58.122Z,82.21
2023-03-28T00:54:10.483Z,82.21
2023-03-28T00:54:21.171Z,82.31
2023-03-28T00:54:32.861Z,82.21
2023-03-28T00:54:43.592Z,82.10
2023-03-28T00:54:55.499Z,82.10
2023-03-28T00:55:07.986Z,82.00
2023-03-28T00:55:19.725Z,82.00
2023-03-28T00:55:31.488Z,82.00
2023-03-28T00:55:43.921Z,82.00
2023-03-28T00:55:55.594Z,82.00
2023-03-28T00:56:08.288Z,82.00
2023-03-28T00:56:20.710Z,81.86
2023-03-28T00:56:31.400Z,81.96
2023-03-28T00:56:43.089Z,81.96
2023-03-28T00:56:55.329Z,81.96
2023-03-28T00:57:07.100Z,81.86
2023-03-28T00:57:18.871Z,81.76
2023-03-28T00:57:31.160Z,81.76
2023-03-28T00:57:44.150Z,81.55
2023-03-28T00:57:54.880Z,81.34
2023-03-28T00:58:07.797Z,81.23
2023-03-28T00:58:19.520Z,81.23
2023-03-28T00:58:31.277Z,81.23
2023-03-28T00:58:43.013Z,81.13
2023-03-28T00:58:54.737Z,81.02
2023-03-28T00:59:05.452Z,81.02
2023-03-28T00:59:17.142Z,81.02
2023-03-28T00:59:27.855Z,81.02
2023-03-28T00:59:40.252Z,81.02
2023-03-28T00:59:51.964Z,81.13
2023-03-28T01:00:02.665Z,81.02
2023-03-28T01:00:13.435Z,81.13
2023-03-28T01:00:24.117Z,81.13
2023-03-28T01:00:34.964Z,81.13
2023-03-28T01:00:46.708Z,81.02
2023-03-28T01:00:59.129Z,80.92
2023-03-28T01:01:11.533Z,80.92
2023-03-28T01:01:22.247Z,80.92
2023-03-28T01:01:34.872Z,80.92
2023-03-28T01:01:48.025Z,81.02
2023-03-28T01:01:59.756Z,81.13
2023-03-28T01:02:11.992Z,81.02
2023-03-28T01:02:22.754Z,80.82
2023-03-28T01:02:34.493Z,80.71
2023-03-28T01:02:45.324Z,80.57
2023-03-28T01:02:56.093Z,80.57
2023-03-28T01:03:06.998Z,80.57
2023-03-28T01:03:17.791Z,80.57
2023-03-28T01:03:30.041Z,80.57
2023-03-28T01:03:41.030Z,80.68
2023-03-28T01:03:52.869Z,80.78
2023-03-28T01:04:03.562Z,80.88
2023-03-28T01:04:14.262Z,80.92
2023-03-28T01:04:27.522Z,80.88
2023-03-28T01:04:38.200Z,80.88
2023-03-28T01:04:49.865Z,80.88
2023-03-28T01:05:00.856Z,80.99
2023-03-28T01:05:11.583Z,81.02
2023-03-28T01:05:23.748Z,80.99
2023-03-28T01:05:36.148Z,80.88
2023-03-28T01:05:47.947Z,80.68
2023-03-28T01:06:00.544Z,80.57
2023-03-28T01:06:12.449Z,80.57
2023-03-28T01:06:24.105Z,80.57
2023-03-28T01:06:34.839Z,80.57
2023-03-28T01:06:45.528Z,80.57
2023-03-28T01:06:56.229Z,80.68
2023-03-28T01:07:08.410Z,80.57
2023-03-28T01:07:19.112Z,80.57
2023-03-28T01:07:29.872Z,80.68
2023-03-28T01:07:40.605Z,80.68
2023-03-28T01:07:51.327Z,80.78
2023-03-28T01:08:03.513Z,80.78
2023-03-28T01:08:15.967Z,80.78
2023-03-28T01:08:27.744Z,80.78
2023-03-28T01:08:40.634Z,80.78
2023-03-28T01:08:52.373Z,80.88
2023-03-28T01:09:04.602Z,80.88
2023-03-28T01:09:16.194Z,80.88
2023-03-28T01:09:27.986Z,80.78
2023-03-28T01:09:38.661Z,80.78
2023-03-28T01:09:49.415Z,80.68
2023-03-28T01:10:01.174Z,80.68
2023-03-28T01:10:11.929Z,80.68
2023-03-28T01:10:22.640Z,80.68
2023-03-28T01:10:34.311Z,80.68
2023-03-28T01:10:44.996Z,80.47
2023-03-28T01:10:55.741Z,80.36
2023-03-28T01:11:06.457Z,80.36
2023-03-28T01:11:18.230Z,80.47
2023-03-28T01:11:30.650Z,80.57
2023-03-28T01:11:41.329Z,80.57
2023-03-28T01:11:52.038Z,80.68
2023-03-28T01:12:02.880Z,80.68
2023-03-28T01:12:13.586Z,80.68
2023-03-28T01:12:26.592Z,80.78
2023-03-28T01:12:37.329Z,80.78
2023-03-28T01:12:50.011Z,80.68
2023-03-28T01:13:00.820Z,80.68
2023-03-28T01:13:14.848Z,80.57
2023-03-28T01:13:26.770Z,80.68
2023-03-28T01:13:37.549Z,80.78
2023-03-28T01:13:50.866Z,80.78
2023-03-28T01:14:04.610Z,80.68
2023-03-28T01:14:16.353Z,80.78
2023-03-28T01:14:28.889Z,80.82
2023-03-28T01:14:40.592Z,80.82
2023-03-28T01:14:53.877Z,80.92
2023-03-28T01:15:04.751Z,80.92
2023-03-28T01:15:17.179Z,80.92
2023-03-28T01:15:27.870Z,80.92
2023-03-28T01:15:40.244Z,80.92
2023-03-28T01:15:52.990Z,81.02
2023-03-28T01:16:04.985Z,81.13
2023-03-28T01:16:17.549Z,81.02
2023-03-28T01:16:28.321Z,81.02
2023-03-28T01:16:40.564Z,80.92
2023-03-28T01:16:52.272Z,80.92
2023-03-28T01:17:02.992Z,80.82
2023-03-28T01:17:14.680Z,80.82
2023-03-28T01:17:25.461Z,80.92
2023-03-28T01:17:37.147Z,80.92
2023-03-28T01:17:47.849Z,81.02
2023-03-28T01:18:00.285Z,81.02
2023-03-28T01:18:11.948Z,81.13
2023-03-28T01:18:25.132Z,81.13
2023-03-28T01:18:37.813Z,81.23
2023-03-28T01:18:48.556Z,81.34
2023-03-28T01:18:59.259Z,81.45
2023-03-28T01:19:11.469Z,81.34
2023-03-28T01:19:24.622Z,81.23
2023-03-28T01:19:37.830Z,81.23
2023-03-28T01:19:50.235Z,81.23
2023-03-28T01:20:02.402Z,81.34
2023-03-28T01:20:14.081Z,81.34
2023-03-28T01:20:26.024Z,81.45
2023-03-28T01:20:36.770Z,81.48
2023-03-28T01:20:48.975Z,81.48
2023-03-28T01:21:02.178Z,81.45
2023-03-28T01:21:14.885Z,81.59
2023-03-28T01:21:25.616Z,81.69
2023-03-28T01:21:37.342Z,81.59
2023-03-28T01:21:50.230Z,81.59
2023-03-28T01:22:01.928Z,81.59
2023-03-28T01:22:14.419Z,81.59
2023-03-28T01:22:27.599Z,81.59
2023-03-28T01:22:38.352Z,81.59
2023-03-28T01:22:56.925Z,81.59
2023-03-28T01:23:07.393Z,81.59
2023-03-28T01:23:19.073Z,81.59
2023-03-28T01:23:30.786Z,81.59
2023-03-28T01:23:42.529Z,81.59
2023-03-28T01:23:54.284Z,81.59
2023-03-28T01:24:12.584Z,81.59
2023-03-28T01:24:24.431Z,81.59
2023-03-28T01:24:36.853Z,81.59
2023-03-28T01:24:47.600Z,81.59
2023-03-28T01:24:59.450Z,81.69
2023-03-28T01:25:11.652Z,81.79
2023-03-28T01:25:22.351Z,81.79
2023-03-28T01:25:34.101Z,81.79
2023-03-28T01:25:46.493Z,81.90
2023-03-28T01:25:57.326Z,81.90
2023-03-28T01:26:09.239Z,81.90
2023-03-28T01:26:21.656Z,82.00
2023-03-28T01:26:32.447Z,82.10
2023-03-28T01:26:43.148Z,82.21
2023-03-28T01:26:55.126Z,82.21
2023-03-28T01:27:07.549Z,82.31
2023-03-28T01:27:18.258Z,82.31
2023-03-28T01:27:28.983Z,82.42
2023-03-28T01:27:39.689Z,82.42
2023-03-28T01:27:51.376Z,82.53
2023-03-28T01:28:03.549Z,82.63
2023-03-28T01:28:14.269Z,82.53
2023-03-28T01:28:25.992Z,82.42
2023-03-28T01:28:36.701Z,82.31
2023-03-28T01:28:49.125Z,82.31
2023-03-28T01:29:01.054Z,82.42
2023-03-28T01:29:14.232Z,82.42
2023-03-28T01:29:26.409Z,82.53
2023-03-28T01:29:38.129Z,82.53
2023-03-28T01:29:48.882Z,82.63
2023-03-28T01:29:59.688Z,82.63
2023-03-28T01:30:10.438Z,82.63
2023-03-28T01:30:22.108Z,82.63
2023-03-28T01:30:32.862Z,82.63
2023-03-28T01:30:44.537Z,82.73
2023-03-28T01:30:56.721Z,82.73
2023-03-28T01:31:08.971Z,82.73
2023-03-28T01:31:20.688Z,82.73
2023-03-28T01:31:31.478Z,82.63
2023-03-28T01:31:42.272Z,82.63
2023-03-28T01:31:53.005Z,82.63
2023-03-28T01:32:04.763Z,82.63
2023-03-28T01:32:16.495Z,82.73
2023-03-28T01:32:27.238Z,82.73
2023-03-28T01:32:37.922Z,82.73
2023-03-28T01:32:48.701Z,82.63
2023-03-28T01:33:00.432Z,82.63
2023-03-28T01:33:11.229Z,82.63
2023-03-28T01:33:23.649Z,82.63
2023-03-28T01:33:36.059Z,82.63
2023-03-28T01:33:46.823Z,82.53
2023-03-28T01:33:57.542Z,82.42
2023-03-28T01:34:09.253Z,82.31
2023-03-28T01:34:20.970Z,82.21
2023-03-28T01:34:31.692Z,82.10
2023-03-28T01:34:44.685Z,81.90
2023-03-28T01:34:55.420Z,81.79
2023-03-28T01:35:07.107Z,81.69
2023-03-28T01:35:17.948Z,81.69
2023-03-28T01:35:28.853Z,81.59
2023-03-28T01:35:40.844Z,81.55
2023-03-28T01:35:51.597Z,81.45
2023-03-28T01:36:03.889Z,81.45
2023-03-28T01:36:33.972Z,81.45
2023-03-28T01:36:34.312Z,81.45
2023-03-28T01:36:46.139Z,81.45
2023-03-28T01:36:56.862Z,81.34
2023-03-28T01:37:09.031Z,81.34
2023-03-28T01:37:19.780Z,81.45
2023-03-28T01:37:32.057Z,81.55
2023-03-28T01:37:42.768Z,81.55
2023-03-28T01:37:55.165Z,81.65
2023-03-28T01:38:06.835Z,81.65
2023-03-28T01:38:17.574Z,81.65
2023-03-28T01:38:28.287Z,81.65
2023-03-28T01:38:41.554Z,81.65
2023-03-28T01:38:53.249Z,81.65
2023-03-28T01:39:03.948Z,81.65
2023-03-28T01:39:14.664Z,81.55
2023-03-28T01:39:27.833Z,81.55
2023-03-28T01:39:40.004Z,81.45
2023-03-28T01:39:52.194Z,81.45
2023-03-28T01:40:05.396Z,81.45
2023-03-28T01:40:16.117Z,81.34
2023-03-28T01:40:28.533Z,81.34
2023-03-28T01:40:39.310Z,81.34
2023-03-28T01:40:51.011Z,81.23
2023-03-28T01:41:01.708Z,81.02
2023-03-28T01:41:12.403Z,80.92
2023-03-28T01:41:23.143Z,80.92
2023-03-28T01:41:35.585Z,80.92
2023-03-28T01:41:46.319Z,80.92
2023-03-28T01:41:58.053Z,80.92
2023-03-28T01:42:10.434Z,80.92
2023-03-28T01:42:21.150Z,80.82
2023-03-28T01:42:32.835Z,80.82
2023-03-28T01:42:46.022Z,80.82
2023-03-28T01:42:59.729Z,80.82
2023-03-28T01:43:12.180Z,80.82
2023-03-28T01:43:24.616Z,80.82
2023-03-28T01:43:37.045Z,80.82
2023-03-28T01:43:48.730Z,80.82
2023-03-28T01:44:02.412Z,80.92
2023-03-28T01:44:13.105Z,80.92
2023-03-28T01:44:23.794Z,81.02
2023-03-28T01:44:36.724Z,81.02
2023-03-28T01:44:47.444Z,81.13
2023-03-28T01:45:00.628Z,81.23
2023-03-28T01:45:13.421Z,81.23
2023-03-28T01:45:25.887Z,81.34
2023-03-28T01:45:36.708Z,81.34
2023-03-28T01:45:50.443Z,81.23
2023-03-28T01:46:02.509Z,81.23
2023-03-28T01:46:14.674Z,81.23
2023-03-28T01:46:27.211Z,81.34
2023-03-28T01:46:37.924Z,81.34
2023-03-28T01:46:50.362Z,81.34
2023-03-28T01:47:01.084Z,81.23
2023-03-28T01:47:11.771Z,81.23
2023-03-28T01:47:22.542Z,81.23
2023-03-28T01:47:34.225Z,81.23
2023-03-28T01:47:46.810Z,81.34
2023-03-28T01:47:59.194Z,81.34
2023-03-28T01:48:11.678Z,81.34
2023-03-28T01:48:23.441Z,81.23
2023-03-28T01:48:34.197Z,81.23
2023-03-28T01:48:44.898Z,81.34
2023-03-28T01:48:55.628Z,81.34
2023-03-28T01:49:08.804Z,81.34
2023-03-28T01:49:22.474Z,81.23
2023-03-28T01:49:33.223Z,81.23
2023-03-28T01:49:43.961Z,81.23
2023-03-28T01:49:55.882Z,81.13
2023-03-28T01:50:08.096Z,81.13
2023-03-28T01:50:21.011Z,81.02
2023-03-28T01:50:32.724Z,81.02
2023-03-28T01:50:43.464Z,81.13
2023-03-28T01:50:54.171Z,81.23
2023-03-28T01:51:04.887Z,81.13
2023-03-28T01:51:15.589Z,81.02
2023-03-28T01:51:26.294Z,81.13
2023-03-28T01:51:37.984Z,81.13
2023-03-28T01:51:50.187Z,81.13
2023-03-28T01:52:01.842Z,81.23
2023-03-28T01:52:14.774Z,81.34
2023-03-28T01:52:26.513Z,81.45
2023-03-28T01:52:37.229Z,81.45
2023-03-28T01:52:49.391Z,81.45
2023-03-28T01:53:01.745Z,81.34
2023-03-28T01:53:12.492Z,81.23
2023-03-28T01:53:23.221Z,81.13
2023-03-28T01:53:36.942Z,80.92
2023-03-28T01:53:47.650Z,80.82
2023-03-28T01:53:58.415Z,80.71
2023-03-28T01:54:10.171Z,80.82
2023-03-28T01:54:20.941Z,80.92
2023-03-28T01:54:33.443Z,80.92
2023-03-28T01:54:45.141Z,80.92
2023-03-28T01:54:56.894Z,81.02
2023-03-28T01:55:08.553Z,81.13
2023-03-28T01:55:19.236Z,81.23
2023-03-28T01:55:31.942Z,81.34
2023-03-28T01:55:49.279Z,81.45
2023-03-28T01:56:00.111Z,81.34
2023-03-28T01:56:10.891Z,81.34
2023-03-28T01:56:21.659Z,81.34
2023-03-28T01:56:32.431Z,81.23
2023-03-28T01:56:44.380Z,81.23
2023-03-28T01:56:56.680Z,81.23
2023-03-28T01:57:07.470Z,81.13
2023-03-28T01:57:18.260Z,81.23
2023-03-28T01:57:29.033Z,81.23
2023-03-28T01:57:41.557Z,81.23
2023-03-28T01:57:52.310Z,81.34
2023-03-28T01:58:02.996Z,81.45
2023-03-28T01:58:15.469Z,81.45
2023-03-28T01:58:26.220Z,81.34
2023-03-28T01:58:38.158Z,81.34
2023-03-28T01:58:48.924Z,81.34
2023-03-28T01:59:00.662Z,81.45
2023-03-28T01:59:12.415Z,81.45
2023-03-28T01:59:25.574Z,81.55
2023-03-28T01:59:36.265Z,81.55
2023-03-28T01:59:48.005Z,81.45
2023-03-28T01:59:58.713Z,81.34
2023-03-28T02:00:09.454Z,81.34
2023-03-28T02:00:22.407Z,81.34
2023-03-28T02:00:33.131Z,81.34
2023-03-28T02:00:46.928Z,81.34
2023-03-28T02:00:59.386Z,81.23
2023-03-28T02:01:10.133Z,81.13
2023-03-28T02:01:20.928Z,81.13
2023-03-28T02:01:32.719Z,81.13
2023-03-28T02:01:45.115Z,81.13
2023-03-28T02:01:58.317Z,81.23
2023-03-28T02:02:10.763Z,81.23
2023-03-28T02:02:21.551Z,81.13
2023-03-28T02:02:34.565Z,81.13
2023-03-28T02:02:46.341Z,81.13
2023-03-28T02:02:57.281Z,81.13
2023-03-28T02:03:09.825Z,81.13
2023-03-28T02:03:22.240Z,81.13
2023-03-28T02:03:34.046Z,81.13
2023-03-28T02:03:44.746Z,81.13
2023-03-28T02:03:56.521Z,81.23
2023-03-28T02:04:20.654Z,81.34
2023-03-28T02:04:24.612Z,81.45
2023-03-28T02:04:35.359Z,81.45
2023-03-28T02:04:47.070Z,81.45
2023-03-28T02:04:58.736Z,81.45
2023-03-28T02:05:09.450Z,81.34
2023-03-28T02:05:20.235Z,81.45
2023-03-28T02:05:30.967Z,81.34
2023-03-28T02:05:43.140Z,81.34
2023-03-28T02:05:54.837Z,81.45
2023-03-28T02:06:05.599Z,81.45
2023-03-28T02:06:17.277Z,81.45
2023-03-28T02:06:29.427Z,81.45
2023-03-28T02:06:40.115Z,81.45
2023-03-28T02:06:51.867Z,81.45
2023-03-28T02:07:06.007Z,81.34
2023-03-28T02:07:16.911Z,81.34
2023-03-28T02:07:27.627Z,81.34
2023-03-28T02:07:40.053Z,81.23
2023-03-28T02:07:51.775Z,81.23
2023-03-28T02:08:03.492Z,81.23
2023-03-28T02:08:15.142Z,81.13
2023-03-28T02:08:27.582Z,81.13
2023-03-28T02:08:38.263Z,81.13
2023-03-28T02:08:49.008Z,81.23
2023-03-28T02:08:59.762Z,81.34
2023-03-28T02:09:11.493Z,81.34
2023-03-28T02:09:24.799Z,81.34
2023-03-28T02:09:37.915Z,81.45
2023-03-28T02:09:49.831Z,81.45
2023-03-28T02:10:02.277Z,81.45
2023-03-28T02:10:12.974Z,81.55
2023-03-28T02:10:25.385Z,81.55
2023-03-28T02:10:37.744Z,81.45
2023-03-28T02:10:49.458Z,81.45
2023-03-28T02:11:01.146Z,81.45
2023-03-28T02:11:11.867Z,81.55
2023-03-28T02:11:25.305Z,81.65
2023-03-28T02:11:36.968Z,81.86
2023-03-28T02:11:48.639Z,81.86
2023-03-28T02:12:00.868Z,81.86
2023-03-28T02:12:11.586Z,81.86
2023-03-28T02:12:22.337Z,81.86
2023-03-28T02:12:34.010Z,81.76
2023-03-28T02:12:44.753Z,81.65
2023-03-28T02:12:57.448Z,81.65
2023-03-28T02:13:08.190Z,81.55
2023-03-28T02:13:20.741Z,81.55
2023-03-28T02:13:33.170Z,81.55
2023-03-28T02:13:44.888Z,81.55
2023-03-28T02:13:57.273Z,81.55
2023-03-28T02:14:07.969Z,81.55
2023-03-28T02:14:20.404Z,81.55
2023-03-28T02:14:31.174Z,81.55
2023-03-28T02:14:41.901Z,81.65
2023-03-28T02:14:55.048Z,81.65
2023-03-28T02:15:08.231Z,81.65
2023-03-28T02:15:19.971Z,81.65
2023-03-28T02:15:31.647Z,81.65
2023-03-28T02:15:43.332Z,81.65
2023-03-28T02:15:54.121Z,81.65
2023-03-28T02:16:08.937Z,81.76
2023-03-28T02:16:21.375Z,81.76
2023-03-28T02:16:33.057Z,81.76
2023-03-28T02:16:43.795Z,81.79
2023-03-28T02:16:55.501Z,81.86
2023-03-28T02:17:06.212Z,81.96
2023-03-28T02:17:18.714Z,81.90
2023-03-28T02:17:31.944Z,81.79
2023-03-28T02:17:43.626Z,81.69
2023-03-28T02:17:56.268Z,81.79
2023-03-28T02:18:07.932Z,81.79
2023-03-28T02:18:18.641Z,81.79
2023-03-28T02:18:29.415Z,81.90
2023-03-28T02:18:41.827Z,82.00
2023-03-28T02:18:52.569Z,82.00
2023-03-28T02:19:03.238Z,82.10
2023-03-28T02:19:13.988Z,82.00
2023-03-28T02:19:25.676Z,82.00
2023-03-28T02:19:37.864Z,82.00
2023-03-28T02:19:48.572Z,82.00
2023-03-28T02:20:00.251Z,82.10
2023-03-28T02:20:12.139Z,82.10
2023-03-28T02:20:22.849Z,82.21
2023-03-28T02:20:35.294Z,82.21
2023-03-28T02:20:47.962Z,82.21
2023-03-28T02:21:00.381Z,82.21
2023-03-28T02:21:13.547Z,82.31
2023-03-28T02:21:25.953Z,82.31
2023-03-28T02:21:37.661Z,82.31
2023-03-28T02:21:48.335Z,82.21
2023-03-28T02:22:00.062Z,82.21
2023-03-28T02:22:11.790Z,82.21
2023-03-28T02:22:22.518Z,82.21
2023-03-28T02:22:33.293Z,82.21
2023-03-28T02:22:45.686Z,82.31
2023-03-28T02:22:57.405Z,82.31
2023-03-28T02:23:08.132Z,82.42
2023-03-28T02:23:19.856Z,82.53
2023-03-28T02:23:32.563Z,82.63
2023-03-28T02:23:43.286Z,82.73
2023-03-28T02:23:53.986Z,82.63
2023-03-28T02:24:06.700Z,82.63
2023-03-28T02:24:17.493Z,82.53
2023-03-28T02:24:29.906Z,82.53
2023-03-28T02:24:42.325Z,82.56
2023-03-28T02:24:54.590Z,82.56
2023-03-28T02:25:07.026Z,82.56
2023-03-28T02:25:19.575Z,82.67
2023-03-28T02:25:31.337Z,82.67
2023-03-28T02:25:44.512Z,82.77
2023-03-28T02:25:56.269Z,82.77
2023-03-28T02:26:07.020Z,82.87
2023-03-28T02:26:20.436Z,82.87
2023-03-28T02:26:32.184Z,82.98
2023-03-28T02:26:42.889Z,83.08
2023-03-28T02:26:59.955Z,83.18
2023-03-28T02:27:10.730Z,83.18
2023-03-28T02:27:23.136Z,83.18
2023-03-28T02:27:33.852Z,83.18
2023-03-28T02:27:44.567Z,83.18
2023-03-28T02:27:56.272Z,83.18
2023-03-28T02:28:07.006Z,83.18
2023-03-28T02:28:17.788Z,83.29
2023-03-28T02:28:29.688Z,83.40
2023-03-28T02:28:41.404Z,83.50
2023-03-28T02:28:53.101Z,83.61
2023-03-28T02:29:03.887Z,83.61
2023-03-28T02:29:14.635Z,83.71
2023-03-28T02:29:26.300Z,83.71
2023-03-28T02:29:37.004Z,83.81
2023-03-28T02:29:49.440Z,83.81
2023-03-28T02:30:01.875Z,83.81
2023-03-28T02:30:12.615Z,83.81
2023-03-28T02:30:24.794Z,83.81
2023-03-28T02:30:36.548Z,83.81
2023-03-28T02:30:48.747Z,83.81